Time;durP1;ratioP1;P1;durP2;ratioP2;P2;SDS_P1;SDS_P2;PMS_P1;PMS_P2;Temp;Humidity;BMP_temperature;BMP_pressure;BME280_temperature;BME280_humidity;BME280_pressure;Samples;Min_cycle;Max_cycle;Signal;HPM_P1;HPM_P2
2022/12/31 00:02:09;;;;;;;1.13;0.60;;;12.80;99.90;;;;;;7403501;19;20616;-77
2022/12/31 00:04:34;;;;;;;1.25;0.50;;;12.80;99.90;;;;;;7398695;19;20151;-78
2022/12/31 00:07:00;;;;;;;0.43;0.43;;;12.80;99.90;;;;;;7400139;19;20130;-77
2022/12/31 00:09:26;;;;;;;2.13;0.60;;;12.80;99.90;;;;;;7407325;19;20234;-78
2022/12/31 00:11:52;;;;;;;0.73;0.50;;;12.90;99.90;;;;;;7404789;19;20131;-77
2022/12/31 00:14:17;;;;;;;0.40;0.40;;;12.80;99.90;;;;;;7405449;19;20134;-78
2022/12/31 00:16:43;;;;;;;0.77;0.50;;;12.90;99.90;;;;;;7405606;19;20173;-77
2022/12/31 00:19:10;;;;;;;0.60;0.60;;;12.90;99.90;;;;;;7403707;19;20150;-78
2022/12/31 00:21:37;;;;;;;0.50;0.40;;;12.80;99.90;;;;;;7405029;19;20150;-77
2022/12/31 00:24:04;;;;;;;0.43;0.40;;;12.90;99.90;;;;;;7407429;19;20139;-78
2022/12/31 00:26:33;;;;;;;0.32;0.30;;;12.90;99.90;;;;;;7404943;19;20138;-79
2022/12/31 00:29:00;;;;;;;0.68;0.47;;;13.00;99.90;;;;;;7407123;19;20150;-79
2022/12/31 00:31:28;;;;;;;0.43;0.43;;;13.10;99.90;;;;;;7407571;19;20148;-78
2022/12/31 00:33:55;;;;;;;0.75;0.50;;;13.10;99.90;;;;;;7408437;19;20202;-78
2022/12/31 00:36:29;;;;;;;0.52;0.50;;;13.10;99.90;;;;;;7409699;19;20626;-78
2022/12/31 00:38:57;;;;;;;1.10;0.50;;;13.10;99.90;;;;;;7408939;19;20162;-77
2022/12/31 00:41:24;;;;;;;0.60;0.45;;;13.10;99.90;;;;;;7410547;19;20139;-78
2022/12/31 00:43:50;;;;;;;0.32;0.32;;;13.10;99.90;;;;;;7403685;19;20563;-78
2022/12/31 00:46:16;;;;;;;0.65;0.38;;;13.00;99.90;;;;;;7402940;19;20178;-78
2022/12/31 00:48:42;;;;;;;0.37;0.30;;;13.20;99.90;;;;;;7404953;19;20135;-78
2022/12/31 00:51:11;;;;;;;0.88;0.32;;;13.20;99.90;;;;;;7406993;19;20142;-78
2022/12/31 00:53:37;;;;;;;0.55;0.40;;;13.20;99.90;;;;;;7409792;19;20561;-77
2022/12/31 00:56:11;;;;;;;0.40;0.40;;;13.20;99.90;;;;;;7404597;19;20150;-77
2022/12/31 00:58:38;;;;;;;0.57;0.50;;;13.10;99.90;;;;;;7404462;19;20149;-76
2022/12/31 01:01:20;;;;;;;0.30;0.30;;;13.10;99.90;;;;;;7406842;19;20139;-77
2022/12/31 01:03:47;;;;;;;0.70;0.40;;;13.20;99.90;;;;;;7397834;19;20183;-78
2022/12/31 01:06:14;;;;;;;0.43;0.43;;;13.10;99.90;;;;;;7400187;19;20142;-77
2022/12/31 01:08:40;;;;;;;0.60;0.60;;;13.10;99.90;;;;;;7402526;19;20146;-79
2022/12/31 01:11:18;;;;;;;0.40;0.35;;;13.40;99.90;;;;;;7391449;19;20439;-77
2022/12/31 01:13:50;;;;;;;0.50;0.50;;;13.20;99.90;;;;;;7393908;19;20151;-78
2022/12/31 01:16:17;;;;;;;1.83;0.60;;;13.30;99.90;;;;;;7406104;19;20150;-78
2022/12/31 01:18:43;;;;;;;1.23;0.57;;;13.40;99.90;;;;;;7400532;19;20173;-78
2022/12/31 01:21:10;;;;;;;1.23;0.80;;;13.40;99.90;;;;;;7402844;19;20146;-77
2022/12/31 01:23:36;;;;;;;1.10;0.47;;;13.40;99.90;;;;;;7398602;19;20179;-77
2022/12/31 01:26:04;;;;;;;0.63;0.45;;;13.50;99.90;;;;;;7403764;19;20143;-78
2022/12/31 01:28:30;;;;;;;0.45;0.40;;;13.40;99.90;;;;;;7403089;19;20633;-77
2022/12/31 01:30:57;;;;;;;0.88;0.50;;;13.50;99.90;;;;;;7397314;19;20135;-78
2022/12/31 01:33:23;;;;;;;0.63;0.63;;;13.50;99.90;;;;;;7399480;19;20222;-79
2022/12/31 01:35:48;;;;;;;0.40;0.40;;;13.60;99.90;;;;;;7398878;19;20477;-77
2022/12/31 01:38:14;;;;;;;0.80;0.60;;;13.60;99.90;;;;;;7403885;19;20139;-77
2022/12/31 01:40:40;;;;;;;1.38;0.70;;;13.60;99.90;;;;;;7404728;19;20532;-77
2022/12/31 01:43:18;;;;;;;0.77;0.77;;;13.60;99.90;;;;;;7401805;19;20138;-77
2022/12/31 01:45:52;;;;;;;0.90;0.80;;;13.60;99.90;;;;;;7401828;19;20150;-76
2022/12/31 01:48:23;;;;;;;1.35;0.73;;;13.60;99.90;;;;;;7403223;19;20164;-77
2022/12/31 01:50:51;;;;;;;0.85;0.70;;;13.40;99.90;;;;;;7401032;19;20161;-77
2022/12/31 01:53:17;;;;;;;0.43;0.43;;;13.50;99.90;;;;;;7404652;19;20593;-78
2022/12/31 01:55:53;;;;;;;1.27;0.73;;;13.60;99.90;;;;;;7404742;19;20143;-78
2022/12/31 01:58:35;;;;;;;1.05;0.60;;;13.70;99.90;;;;;;7404076;19;20150;-77
2022/12/31 02:01:01;;;;;;;0.82;0.60;;;13.60;99.90;;;;;;7397384;19;20131;-74
2022/12/31 02:03:28;;;;;;;0.95;0.60;;;13.50;99.90;;;;;;7392562;19;20173;-75
2022/12/31 02:06:04;;;;;;;1.08;0.60;;;13.60;99.90;;;;;;7392834;19;20161;-75
2022/12/31 02:08:30;;;;;;;0.60;0.60;;;13.60;99.90;;;;;;7394344;19;20183;-74
2022/12/31 02:10:56;;;;;;;0.88;0.50;;;13.60;99.90;;;;;;7390251;19;20143;-74
2022/12/31 02:13:22;;;;;;;0.45;0.45;;;13.60;99.90;;;;;;7390227;19;20161;-75
2022/12/31 02:16:04;;;;;;;1.05;0.40;;;13.70;99.90;;;;;;7388682;19;20206;-73
2022/12/31 02:18:33;;;;;;;0.63;0.55;;;13.70;99.90;;;;;;7392330;19;20167;-73
2022/12/31 02:21:26;;;;;;;0.95;0.60;;;13.60;99.90;;;;;;7391601;19;20145;-73
2022/12/31 02:24:07;;;;;;;1.13;0.60;;;13.50;99.90;;;;;;7389900;19;20225;-74
2022/12/31 02:26:58;;;;;;;0.75;0.60;;;13.50;99.90;;;;;;7392292;19;20134;-73
2022/12/31 02:29:47;;;;;;;0.90;0.77;;;13.40;99.90;;;;;;7391675;19;20135;-74
2022/12/31 02:32:22;;;;;;;1.30;0.70;;;13.30;99.90;;;;;;7390111;19;20589;-74
2022/12/31 02:34:53;;;;;;;1.05;0.47;;;13.20;99.90;;;;;;7389726;19;20156;-74
2022/12/31 02:37:20;;;;;;;0.40;0.40;;;13.10;99.90;;;;;;7393401;19;20135;-74
2022/12/31 02:39:47;;;;;;;1.95;0.80;;;13.10;99.90;;;;;;7380232;19;20168;-74
2022/12/31 02:42:12;;;;;;;0.90;0.70;;;13.20;99.90;;;;;;7391225;19;20154;-75
2022/12/31 02:44:40;;;;;;;1.30;1.00;;;13.10;99.90;;;;;;7387776;19;20141;-74
2022/12/31 02:47:24;;;;;;;1.38;0.90;;;13.10;99.90;;;;;;7392868;19;20205;-74
2022/12/31 02:50:14;;;;;;;0.90;0.68;;;13.10;99.90;;;;;;7391049;19;20151;-74
2022/12/31 02:52:52;;;;;;;0.77;0.45;;;13.10;99.90;;;;;;7389275;19;20134;-74
2022/12/31 02:55:36;;;;;;;1.75;0.50;;;13.10;99.90;;;;;;7390237;19;20134;-73
2022/12/31 03:02:12;;;;;;;0.65;0.38;;;13.20;99.90;;;;;;7390315;19;20146;-74
2022/12/31 03:04:30;;;;;;;0.55;0.55;;;13.20;99.90;;;;;;7386248;19;20201;-73
2022/12/31 03:06:41;;;;;;;0.43;0.43;;;13.60;99.90;;;;;;7393070;19;20138;-75
2022/12/31 03:09:12;;;;;;;1.05;0.50;;;13.60;99.90;;;;;;7390583;19;20138;-74
2022/12/31 03:14:24;;;;;;;0.52;0.50;;;13.50;99.90;;;;;;7386873;19;20202;-73
2022/12/31 03:16:50;;;;;;;1.50;0.50;;;13.60;99.90;;;;;;7392015;19;20523;-73
2022/12/31 03:27:29;;;;;;;0.80;0.50;;;13.80;99.90;;;;;;7392138;19;20139;-74
2022/12/31 03:29:54;;;;;;;0.47;0.47;;;13.80;99.90;;;;;;7385911;19;20139;-73
2022/12/31 03:32:20;;;;;;;0.82;0.82;;;13.80;99.90;;;;;;7389737;19;20162;-75
2022/12/31 03:34:46;;;;;;;1.73;0.40;;;13.60;99.90;;;;;;7391062;19;20130;-74
2022/12/31 03:37:11;;;;;;;0.40;0.40;;;13.90;99.90;;;;;;7390376;19;20639;-73
2022/12/31 03:39:37;;;;;;;0.50;0.45;;;14.00;99.90;;;;;;7387047;19;20161;-73
2022/12/31 03:42:03;;;;;;;0.80;0.50;;;14.10;99.90;;;;;;7390300;19;20202;-74
2022/12/31 03:44:29;;;;;;;2.20;0.50;;;14.10;99.90;;;;;;7390472;19;20143;-74
2022/12/31 03:46:54;;;;;;;0.52;0.50;;;14.10;99.90;;;;;;7391345;19;20130;-73
2022/12/31 03:49:20;;;;;;;0.55;0.50;;;14.10;99.90;;;;;;7390606;19;20147;-73
2022/12/31 03:51:46;;;;;;;0.95;0.50;;;14.10;99.90;;;;;;7388286;19;20155;-74
2022/12/31 03:54:12;;;;;;;0.63;0.50;;;14.10;99.90;;;;;;7389433;19;20138;-73
2022/12/31 03:56:37;;;;;;;0.70;0.50;;;14.20;99.90;;;;;;7388275;19;20145;-74
2022/12/31 03:59:03;;;;;;;0.60;0.55;;;14.30;99.90;;;;;;7391544;19;20142;-74
2022/12/31 04:01:29;;;;;;;0.40;0.40;;;14.30;99.90;;;;;;7388709;19;20158;-73
2022/12/31 04:03:54;;;;;;;0.35;0.35;;;14.30;99.90;;;;;;7383061;19;20154;-74
2022/12/31 04:06:20;;;;;;;1.45;0.30;;;14.30;99.90;;;;;;7389300;19;20578;-74
2022/12/31 04:08:46;;;;;;;1.70;0.50;;;14.40;99.90;;;;;;7388287;19;20127;-75
2022/12/31 04:11:11;;;;;;;1.80;0.52;;;14.40;99.90;;;;;;7387214;19;20146;-74
2022/12/31 04:13:37;;;;;;;0.50;0.40;;;14.40;99.90;;;;;;7389632;19;20139;-74
2022/12/31 04:16:03;;;;;;;0.65;0.40;;;14.40;99.90;;;;;;7391453;19;20447;-74
2022/12/31 04:18:29;;;;;;;1.13;0.40;;;14.40;99.90;;;;;;7391004;19;20163;-73
2022/12/31 04:20:59;;;;;;;1.10;0.40;;;14.40;99.90;;;;;;7388249;19;20146;-74
2022/12/31 04:23:25;;;;;;;0.88;0.70;;;14.50;99.90;;;;;;7387732;19;20627;-74
2022/12/31 04:25:52;;;;;;;0.45;0.30;;;14.60;99.90;;;;;;7387640;19;20130;-73
2022/12/31 04:28:18;;;;;;;3.13;0.60;;;14.60;99.90;;;;;;7389510;19;20161;-74
2022/12/31 04:30:44;;;;;;;0.50;0.50;;;14.70;99.90;;;;;;7388446;19;20126;-73
2022/12/31 04:33:10;;;;;;;0.85;0.50;;;14.60;99.90;;;;;;7388871;19;20142;-74
2022/12/31 04:35:35;;;;;;;0.60;0.50;;;14.60;99.90;;;;;;7389000;19;20482;-74
2022/12/31 04:38:01;;;;;;;1.27;0.40;;;14.70;99.90;;;;;;7390103;19;20138;-74
2022/12/31 04:40:27;;;;;;;0.40;0.30;;;14.70;99.90;;;;;;7388214;19;20137;-73
2022/12/31 04:42:53;;;;;;;0.95;0.47;;;14.60;99.90;;;;;;7383766;19;20228;-74
2022/12/31 04:45:18;;;;;;;0.47;0.30;;;14.60;99.90;;;;;;7387371;19;20123;-72
2022/12/31 04:47:44;;;;;;;1.13;0.47;;;14.60;99.90;;;;;;7387043;19;20143;-74
2022/12/31 04:50:10;;;;;;;0.80;0.40;;;14.60;99.90;;;;;;7387564;19;20134;-75
2022/12/31 04:52:36;;;;;;;1.67;0.50;;;14.40;99.90;;;;;;7385820;19;20213;-75
2022/12/31 04:55:01;;;;;;;0.52;0.50;;;14.70;99.90;;;;;;7386573;19;20131;-75
2022/12/31 04:57:27;;;;;;;0.50;0.40;;;14.60;99.90;;;;;;7388767;19;20153;-74
2022/12/31 04:59:53;;;;;;;0.30;0.30;;;14.50;99.90;;;;;;7387275;19;20142;-74
2022/12/31 05:02:19;;;;;;;0.93;0.40;;;14.60;99.90;;;;;;7385514;19;20161;-74
2022/12/31 05:04:44;;;;;;;1.13;0.40;;;14.60;99.90;;;;;;7383075;19;20174;-73
2022/12/31 05:07:10;;;;;;;0.63;0.50;;;14.50;99.90;;;;;;7388070;19;20131;-73
2022/12/31 05:09:37;;;;;;;0.60;0.32;;;14.60;99.90;;;;;;7387992;19;20169;-75
2022/12/31 05:12:03;;;;;;;1.73;0.40;;;14.60;99.90;;;;;;7383410;19;20738;-73
2022/12/31 05:14:29;;;;;;;0.40;0.40;;;14.60;99.90;;;;;;7386210;19;20147;-73
2022/12/31 05:16:55;;;;;;;0.40;0.32;;;14.60;99.90;;;;;;7385718;19;20169;-72
2022/12/31 05:19:20;;;;;;;0.30;0.30;;;14.50;99.90;;;;;;7391814;19;20126;-73
2022/12/31 05:22:27;;;;;;;0.30;0.30;;;14.50;99.90;;;;;;7392636;19;20146;-75
2022/12/31 05:24:32;;;;;;;0.82;0.30;;;14.50;99.90;;;;;;7392428;19;20171;-75
2022/12/31 05:26:58;;;;;;;0.45;0.40;;;14.60;99.90;;;;;;7392069;19;20134;-76
2022/12/31 05:29:24;;;;;;;0.40;0.40;;;14.50;99.90;;;;;;7392845;19;20138;-74
2022/12/31 05:31:49;;;;;;;0.73;0.40;;;14.50;99.90;;;;;;7392598;19;20629;-73
2022/12/31 05:34:15;;;;;;;0.40;0.40;;;14.40;99.90;;;;;;7393410;19;20154;-74
2022/12/31 05:36:41;;;;;;;0.93;0.50;;;14.50;99.90;;;;;;7394041;19;20713;-74
2022/12/31 05:39:06;;;;;;;0.40;0.40;;;14.50;99.90;;;;;;7390943;19;20222;-73
2022/12/31 05:41:32;;;;;;;0.60;0.50;;;14.50;99.90;;;;;;7393064;19;20443;-74
2022/12/31 05:43:58;;;;;;;0.38;0.38;;;14.60;99.90;;;;;;7392448;19;20130;-75
2022/12/31 05:46:24;;;;;;;0.20;0.20;;;14.50;99.90;;;;;;7391087;19;20130;-74
2022/12/31 05:48:49;;;;;;;0.30;0.30;;;14.60;99.90;;;;;;7393160;19;20131;-73
2022/12/31 05:51:15;;;;;;;0.30;0.30;;;14.60;99.90;;;;;;7391253;19;20126;-73
2022/12/31 05:53:41;;;;;;;0.30;0.30;;;14.50;99.90;;;;;;7394055;19;20138;-74
2022/12/31 05:56:06;;;;;;;0.52;0.43;;;14.60;99.90;;;;;;7391492;19;20134;-75
2022/12/31 05:58:32;;;;;;;0.45;0.40;;;14.50;99.90;;;;;;7392150;19;20489;-74
2022/12/31 06:00:58;;;;;;;0.50;0.50;;;14.60;99.90;;;;;;7392339;19;20139;-73
2022/12/31 06:03:24;;;;;;;0.32;0.32;;;14.60;99.90;;;;;;7391823;19;20146;-74
2022/12/31 06:05:49;;;;;;;0.40;0.40;;;14.60;99.90;;;;;;7391547;19;20170;-75
2022/12/31 06:08:15;;;;;;;0.60;0.50;;;14.60;99.90;;;;;;7390057;19;20607;-74
2022/12/31 06:10:41;;;;;;;1.70;0.57;;;14.60;99.90;;;;;;7392456;19;20131;-75
2022/12/31 06:13:07;;;;;;;0.40;0.40;;;14.70;99.90;;;;;;7390927;19;20165;-74
2022/12/31 06:15:36;;;;;;;0.85;0.40;;;14.90;99.90;;;;;;7393697;19;20145;-73
2022/12/31 06:18:02;;;;;;;0.25;0.25;;;14.60;99.90;;;;;;7392104;19;20139;-74
2022/12/31 06:20:27;;;;;;;0.30;0.30;;;14.60;99.90;;;;;;7393699;19;20836;-73
2022/12/31 06:22:53;;;;;;;0.80;0.40;;;14.80;99.90;;;;;;7389948;19;20472;-74
2022/12/31 06:25:19;;;;;;;0.93;0.45;;;14.60;99.90;;;;;;7391002;19;20146;-74
2022/12/31 06:27:45;;;;;;;0.68;0.50;;;14.80;99.90;;;;;;7391956;19;20135;-73
2022/12/31 06:30:11;;;;;;;0.50;0.50;;;14.80;99.90;;;;;;7391814;19;20151;-75
2022/12/31 06:32:38;;;;;;;1.88;0.40;;;14.80;99.90;;;;;;7388230;19;20139;-75
2022/12/31 06:35:04;;;;;;;0.85;0.50;;;14.80;99.90;;;;;;7390146;19;20238;-73
2022/12/31 06:37:30;;;;;;;0.45;0.45;;;14.80;99.90;;;;;;7390743;19;20146;-73
2022/12/31 06:39:56;;;;;;;0.70;0.50;;;14.80;99.90;;;;;;7390755;19;20130;-74
2022/12/31 06:42:21;;;;;;;0.47;0.47;;;14.80;99.90;;;;;;7391947;19;20209;-75
2022/12/31 06:44:47;;;;;;;0.65;0.50;;;14.80;99.90;;;;;;7390804;19;20611;-74
2022/12/31 06:47:13;;;;;;;0.40;0.40;;;15.00;99.90;;;;;;7390110;19;20218;-73
2022/12/31 06:49:39;;;;;;;0.40;0.40;;;14.80;99.90;;;;;;7392847;19;20146;-74
2022/12/31 06:52:05;;;;;;;1.27;0.45;;;14.60;99.90;;;;;;7388047;19;20619;-74
2022/12/31 06:54:31;;;;;;;1.60;0.30;;;14.70;99.90;;;;;;7390196;19;20246;-74
2022/12/31 06:56:57;;;;;;;0.38;0.38;;;14.70;99.90;;;;;;7388409;19;20130;-74
2022/12/31 06:59:27;;;;;;;0.45;0.45;;;14.70;99.90;;;;;;7391385;19;20145;-74
2022/12/31 07:02:19;;;;;;;0.40;0.40;;;14.60;99.90;;;;;;7390885;19;20490;-75
2022/12/31 07:05:08;;;;;;;0.57;0.50;;;14.50;99.90;;;;;;7382034;19;20190;-75
2022/12/31 07:07:46;;;;;;;0.77;0.50;;;14.40;99.90;;;;;;7390772;19;20175;-72
2022/12/31 07:10:39;;;;;;;0.70;0.50;;;14.50;99.90;;;;;;7393426;19;20133;-74
2022/12/31 07:13:42;;;;;;;0.57;0.40;;;14.60;99.90;;;;;;7387942;19;20159;-73
2022/12/31 07:16:13;;;;;;;0.43;0.40;;;14.60;99.90;;;;;;7391766;19;20197;-74
2022/12/31 07:19:17;;;;;;;0.43;0.40;;;14.60;99.90;;;;;;7391808;19;20138;-73
2022/12/31 07:21:43;;;;;;;1.45;0.47;;;14.60;99.90;;;;;;7388175;19;20480;-73
2022/12/31 07:24:10;;;;;;;0.85;0.50;;;14.60;99.90;;;;;;7388254;19;20154;-74
2022/12/31 07:26:44;;;;;;;8.93;5.47;;;14.60;99.90;;;;;;7390277;19;20573;-75
2022/12/31 07:29:28;;;;;;;1.10;0.70;;;14.50;99.90;;;;;;7389880;19;20148;-73
2022/12/31 07:31:59;;;;;;;0.50;0.40;;;14.60;99.90;;;;;;7388669;19;20127;-73
2022/12/31 07:34:53;;;;;;;0.40;0.40;;;14.60;99.90;;;;;;7390659;19;20165;-75
2022/12/31 07:37:43;;;;;;;0.45;0.35;;;14.50;99.90;;;;;;7388999;19;20147;-72
2022/12/31 07:40:44;;;;;;;0.30;0.30;;;14.50;99.90;;;;;;7387175;19;20226;-73
2022/12/31 07:43:25;;;;;;;0.77;0.47;;;14.60;99.90;;;;;;7388706;19;20149;-73
2022/12/31 07:46:25;;;;;;;0.55;0.50;;;14.70;99.90;;;;;;7389878;19;20127;-72
2022/12/31 07:48:51;;;;;;;0.40;0.40;;;14.70;99.90;;;;;;7386803;19;20546;-72
2022/12/31 07:51:17;;;;;;;0.70;0.35;;;14.70;99.90;;;;;;7386768;19;20139;-73
2022/12/31 07:53:43;;;;;;;0.85;0.55;;;14.80;99.90;;;;;;7385121;19;20642;-72
2022/12/31 07:56:09;;;;;;;0.40;0.40;;;14.90;99.90;;;;;;7387436;19;20142;-73
2022/12/31 07:59:01;;;;;;;0.50;0.43;;;14.90;99.90;;;;;;7389114;19;20138;-72
2022/12/31 08:01:55;;;;;;;1.20;0.70;;;14.90;99.90;;;;;;7386336;19;20235;-72
2022/12/31 08:04:34;;;;;;;1.15;0.32;;;14.90;99.90;;;;;;7385508;19;20178;-72
2022/12/31 08:07:36;;;;;;;1.88;0.70;;;14.90;99.90;;;;;;7387158;19;20150;-74
2022/12/31 08:10:17;;;;;;;0.43;0.43;;;15.00;99.90;;;;;;7390033;19;20630;-73
2022/12/31 08:12:45;;;;;;;1.33;0.60;;;15.00;99.90;;;;;;7388198;19;20163;-76
2022/12/31 08:15:14;;;;;;;0.40;0.40;;;15.00;99.90;;;;;;7391519;19;20153;-76
2022/12/31 08:17:40;;;;;;;2.03;0.40;;;15.00;99.90;;;;;;7386573;19;20139;-76
2022/12/31 08:20:06;;;;;;;0.77;0.60;;;15.10;99.90;;;;;;7388814;19;20158;-73
2022/12/31 08:22:56;;;;;;;1.85;0.50;;;15.10;99.90;;;;;;7388561;19;20579;-73
2022/12/31 08:25:26;;;;;;;0.40;0.40;;;15.10;99.90;;;;;;7391758;19;20138;-73
2022/12/31 08:28:07;;;;;;;0.57;0.43;;;15.20;99.90;;;;;;7389143;19;20149;-74
2022/12/31 08:30:59;;;;;;;0.57;0.40;;;15.20;99.90;;;;;;7391762;19;20130;-71
2022/12/31 08:33:30;;;;;;;0.75;0.60;;;15.20;99.90;;;;;;7390372;19;20150;-73
2022/12/31 08:36:28;;;;;;;0.40;0.40;;;15.20;99.90;;;;;;7391281;19;20167;-73
2022/12/31 08:38:57;;;;;;;2.45;0.50;;;15.20;99.90;;;;;;7390405;19;20166;-72
2022/12/31 08:41:34;;;;;;;2.45;0.50;;;15.30;99.90;;;;;;7387220;19;20135;-72
2022/12/31 08:44:33;;;;;;;0.75;0.40;;;15.20;99.90;;;;;;7390921;19;20237;-73
2022/12/31 08:47:05;;;;;;;0.88;0.50;;;15.30;99.90;;;;;;7384868;19;20150;-73
2022/12/31 08:49:33;;;;;;;0.82;0.60;;;15.40;99.90;;;;;;7386844;19;20134;-72
2022/12/31 08:52:00;;;;;;;0.55;0.50;;;15.40;99.90;;;;;;7392300;19;20130;-72
2022/12/31 08:54:26;;;;;;;3.60;0.63;;;15.40;99.90;;;;;;7393355;19;20530;-73
2022/12/31 08:57:14;;;;;;;0.50;0.50;;;15.40;99.90;;;;;;7394692;19;20138;-72
2022/12/31 08:59:58;;;;;;;0.50;0.50;;;15.40;99.90;;;;;;7394373;19;20142;-73
2022/12/31 09:02:47;;;;;;;1.75;0.50;;;15.40;99.90;;;;;;7395589;19;20508;-72
2022/12/31 09:05:43;;;;;;;2.78;0.60;;;15.50;99.90;;;;;;7392726;19;20218;-75
2022/12/31 09:08:12;;;;;;;0.88;0.55;;;15.50;99.90;;;;;;7391836;19;20150;-72
2022/12/31 09:10:46;;;;;;;0.95;0.50;;;15.50;99.90;;;;;;7390841;19;20152;-71
2022/12/31 09:13:20;;;;;;;0.63;0.50;;;15.50;99.90;;;;;;7391256;19;20150;-71
2022/12/31 09:16:14;;;;;;;0.70;0.50;;;15.50;99.90;;;;;;7392664;19;20143;-71
2022/12/31 09:18:42;;;;;;;3.05;1.48;;;15.50;99.90;;;;;;7390656;19;20226;-74
2022/12/31 09:21:11;;;;;;;1.33;0.70;;;15.60;99.90;;;;;;7393457;19;20154;-73
2022/12/31 09:23:37;;;;;;;0.82;0.55;;;15.70;99.90;;;;;;7393247;19;20138;-72
2022/12/31 09:26:35;;;;;;;0.93;0.40;;;15.70;99.90;;;;;;7393201;19;20162;-73
2022/12/31 09:29:11;;;;;;;0.73;0.50;;;15.70;99.90;;;;;;7395158;19;20142;-73
2022/12/31 09:32:18;;;;;;;0.60;0.47;;;15.80;99.90;;;;;;7391834;19;20153;-72
2022/12/31 09:35:32;;;;;;;2.15;0.63;;;15.80;99.90;;;;;;7390107;19;20158;-74
2022/12/31 09:38:21;;;;;;;2.22;0.52;;;15.90;99.90;;;;;;7389794;19;20139;-73
2022/12/31 09:40:54;;;;;;;0.90;0.45;;;16.00;99.90;;;;;;7393648;19;20495;-73
2022/12/31 09:43:41;;;;;;;0.82;0.52;;;16.00;99.90;;;;;;7393780;19;20139;-73
2022/12/31 09:46:16;;;;;;;2.55;1.10;;;16.00;99.90;;;;;;7392915;19;20153;-73
2022/12/31 09:49:20;;;;;;;9.52;6.15;;;16.10;99.90;;;;;;7394007;19;20161;-71
2022/12/31 09:51:54;;;;;;;2.20;0.75;;;16.20;99.90;;;;;;7391333;19;20551;-72
2022/12/31 09:54:35;;;;;;;0.50;0.43;;;16.30;99.90;;;;;;7392830;19;20162;-73
2022/12/31 09:57:29;;;;;;;1.20;0.60;;;16.30;99.90;;;;;;7393649;19;20161;-72
2022/12/31 09:59:59;;;;;;;0.63;0.50;;;16.40;99.90;;;;;;7393327;19;20139;-72
2022/12/31 10:02:43;;;;;;;1.00;0.90;;;16.40;99.90;;;;;;7391441;19;20147;-72
2022/12/31 10:05:34;;;;;;;2.05;1.08;;;16.50;99.90;;;;;;7390377;19;20201;-73
2022/12/31 10:08:14;;;;;;;0.52;0.52;;;16.50;99.90;;;;;;7393276;19;20142;-71
2022/12/31 10:10:56;;;;;;;0.88;0.50;;;16.70;99.90;;;;;;7394649;19;20145;-72
2022/12/31 10:13:43;;;;;;;0.60;0.50;;;16.70;99.90;;;;;;7392916;19;20138;-73
2022/12/31 10:16:39;;;;;;;0.40;0.32;;;16.70;99.90;;;;;;7394608;19;20147;-72
2022/12/31 10:19:42;;;;;;;1.55;0.60;;;16.70;99.90;;;;;;7393692;19;20134;-73
2022/12/31 10:22:17;;;;;;;0.93;0.40;;;16.80;99.90;;;;;;7394495;19;20175;-73
2022/12/31 10:25:07;;;;;;;0.60;0.47;;;16.90;99.90;;;;;;7392864;19;20154;-73
2022/12/31 10:27:41;;;;;;;1.85;0.70;;;17.00;99.90;;;;;;7391768;19;20143;-71
2022/12/31 10:30:20;;;;;;;0.82;0.50;;;16.90;99.90;;;;;;7393077;19;20146;-74
2022/12/31 10:33:11;;;;;;;0.95;0.60;;;17.00;99.90;;;;;;7389433;19;20621;-73
2022/12/31 10:36:01;;;;;;;0.50;0.50;;;17.00;99.90;;;;;;7392206;19;20161;-75
2022/12/31 10:38:41;;;;;;;0.50;0.47;;;17.10;99.90;;;;;;7389409;19;20150;-73
2022/12/31 10:41:32;;;;;;;1.02;0.57;;;17.10;99.90;;;;;;7389116;19;20774;-75
2022/12/31 10:44:28;;;;;;;0.93;0.63;;;17.10;99.90;;;;;;7387266;19;20493;-71
2022/12/31 10:47:28;;;;;;;0.73;0.50;;;17.20;99.90;;;;;;7389838;19;20591;-72
2022/12/31 10:50:16;;;;;;;0.95;0.40;;;17.20;99.90;;;;;;7388256;19;20142;-72
2022/12/31 10:52:53;;;;;;;0.93;0.50;;;17.20;99.90;;;;;;7386324;19;20146;-71
2022/12/31 10:55:50;;;;;;;0.80;0.50;;;17.30;99.90;;;;;;7392322;19;20140;-72
2022/12/31 10:58:40;;;;;;;0.63;0.47;;;17.30;99.90;;;;;;7391796;19;20150;-76
2022/12/31 11:01:17;;;;;;;0.45;0.45;;;17.40;99.90;;;;;;7390871;19;20591;-72
2022/12/31 11:04:01;;;;;;;0.40;0.40;;;17.50;99.90;;;;;;7387580;19;20162;-72
2022/12/31 11:06:42;;;;;;;5.28;3.33;;;17.50;99.90;;;;;;7387643;19;20606;-74
2022/12/31 11:09:38;;;;;;;0.63;0.40;;;17.60;99.90;;;;;;7389903;19;20471;-73
2022/12/31 11:12:14;;;;;;;0.88;0.50;;;17.60;99.90;;;;;;7386257;19;20518;-74
2022/12/31 11:14:58;;;;;;;0.80;0.50;;;17.60;99.90;;;;;;7387644;19;20648;-72
2022/12/31 11:17:27;;;;;;;0.85;0.43;;;17.60;99.90;;;;;;7388564;19;20158;-74
2022/12/31 11:20:02;;;;;;;0.90;0.60;;;17.70;99.90;;;;;;7388626;19;20150;-74
2022/12/31 11:22:52;;;;;;;0.60;0.57;;;17.80;99.90;;;;;;7388058;19;20175;-75
2022/12/31 11:25:46;;;;;;;0.60;0.60;;;17.80;99.90;;;;;;7392493;19;20532;-75
2022/12/31 11:28:31;;;;;;;1.00;0.50;;;17.90;99.90;;;;;;7388900;19;20383;-73
2022/12/31 11:31:26;;;;;;;0.60;0.50;;;17.90;99.90;;;;;;7393219;19;20142;-74
2022/12/31 11:34:13;;;;;;;2.13;0.60;;;18.00;99.90;;;;;;7386281;19;20622;-73
2022/12/31 11:36:57;;;;;;;0.68;0.47;;;18.10;99.90;;;;;;7390398;19;20506;-74
2022/12/31 11:39:45;;;;;;;0.85;0.40;;;18.20;99.90;;;;;;7390074;19;20126;-75
2022/12/31 11:42:37;;;;;;;0.75;0.50;;;18.10;99.90;;;;;;7390345;19;20165;-75
2022/12/31 11:45:17;;;;;;;1.40;0.50;;;18.20;99.90;;;;;;7391875;19;20550;-75
2022/12/31 11:48:10;;;;;;;0.50;0.50;;;18.10;99.90;;;;;;7389979;19;20130;-74
2022/12/31 11:50:55;;;;;;;0.50;0.50;;;18.20;99.90;;;;;;7387516;19;20139;-74
2022/12/31 11:53:32;;;;;;;0.70;0.60;;;18.30;99.90;;;;;;7389603;19;20141;-77
2022/12/31 11:56:18;;;;;;;1.33;0.52;;;18.30;99.90;;;;;;7388757;19;20135;-75
2022/12/31 11:58:52;;;;;;;0.52;0.40;;;18.30;99.90;;;;;;7385694;19;20149;-75
2022/12/31 12:01:18;;;;;;;1.58;0.50;;;18.30;99.90;;;;;;7381364;19;20681;-75
2022/12/31 12:03:44;;;;;;;0.93;0.50;;;18.40;99.90;;;;;;7383139;19;20172;-74
2022/12/31 12:06:12;;;;;;;0.93;0.65;;;18.40;99.90;;;;;;7379917;19;20142;-75
2022/12/31 12:08:39;;;;;;;0.80;0.50;;;18.50;99.90;;;;;;7384584;19;20205;-74
2022/12/31 12:11:12;;;;;;;2.10;1.15;;;18.50;99.90;;;;;;7385337;19;20142;-74
2022/12/31 12:13:37;;;;;;;0.88;0.57;;;18.60;99.90;;;;;;7383838;19;20161;-75
2022/12/31 12:16:06;;;;;;;2.53;0.52;;;18.70;99.90;;;;;;7385890;19;20484;-75
2022/12/31 12:18:41;;;;;;;0.93;0.60;;;18.70;99.90;;;;;;7388008;19;20600;-74
2022/12/31 12:21:13;;;;;;;1.42;0.70;;;18.70;99.90;;;;;;7389518;19;20137;-76
2022/12/31 12:23:39;;;;;;;1.13;0.80;;;18.70;99.90;;;;;;7388141;19;20620;-76
2022/12/31 12:26:26;;;;;;;1.40;0.40;;;18.70;99.90;;;;;;7390108;19;20172;-74
2022/12/31 12:28:52;;;;;;;0.50;0.40;;;18.70;99.90;;;;;;7395022;19;20141;-75
2022/12/31 12:31:22;;;;;;;0.77;0.55;;;18.80;99.90;;;;;;7395070;19;20135;-74
2022/12/31 12:33:50;;;;;;;1.73;0.60;;;18.70;99.90;;;;;;7396497;19;20175;-73
2022/12/31 12:36:18;;;;;;;0.60;0.40;;;18.70;99.90;;;;;;7396436;19;20147;-74
2022/12/31 12:38:45;;;;;;;0.60;0.50;;;18.60;99.90;;;;;;7394466;19;20206;-74
2022/12/31 12:41:20;;;;;;;0.63;0.50;;;18.60;99.90;;;;;;7394978;19;20154;-74
2022/12/31 12:43:46;;;;;;;1.17;0.65;;;18.60;99.90;;;;;;7394765;19;20466;-74
2022/12/31 12:46:26;;;;;;;1.20;0.80;;;18.60;99.90;;;;;;7397217;19;20138;-75
2022/12/31 12:48:57;;;;;;;0.60;0.60;;;18.60;99.90;;;;;;7392644;19;20149;-73
2022/12/31 12:51:34;;;;;;;1.65;0.60;;;18.50;99.90;;;;;;7393654;19;20230;-73
2022/12/31 12:54:27;;;;;;;0.75;0.70;;;18.60;99.90;;;;;;7394778;19;20147;-75
2022/12/31 12:57:23;;;;;;;1.77;0.50;;;18.60;99.90;;;;;;7394440;19;20630;-74
2022/12/31 13:00:28;;;;;;;0.50;0.50;;;18.70;99.90;;;;;;7393882;19;20142;-74
2022/12/31 13:03:06;;;;;;;1.15;0.50;;;18.70;99.90;;;;;;7390033;19;20150;-73
2022/12/31 13:05:50;;;;;;;0.60;0.60;;;18.80;99.90;;;;;;7392686;19;20516;-74
2022/12/31 13:08:56;;;;;;;1.40;0.52;;;18.70;99.90;;;;;;7395512;19;20134;-74
2022/12/31 13:11:38;;;;;;;0.70;0.57;;;18.70;99.90;;;;;;7391512;19;20531;-74
2022/12/31 13:14:21;;;;;;;1.13;0.70;;;18.70;99.90;;;;;;7395089;19;20138;-74
2022/12/31 13:17:11;;;;;;;1.23;0.63;;;18.60;99.90;;;;;;7394093;19;20217;-73
2022/12/31 13:19:40;;;;;;;0.93;0.60;;;18.60;99.90;;;;;;7395251;19;20156;-74
2022/12/31 13:22:18;;;;;;;0.45;0.40;;;18.70;99.90;;;;;;7394642;19;20156;-73
2022/12/31 13:24:53;;;;;;;0.50;0.40;;;18.60;99.90;;;;;;7395131;19;20194;-73
2022/12/31 13:27:38;;;;;;;1.13;0.60;;;18.60;99.90;;;;;;7392230;19;20221;-74
2022/12/31 13:30:14;;;;;;;0.63;0.40;;;18.50;99.90;;;;;;7395118;19;20142;-73
2022/12/31 13:32:46;;;;;;;0.70;0.60;;;18.50;99.90;;;;;;7392981;19;20149;-73
2022/12/31 13:35:38;;;;;;;0.60;0.50;;;18.40;99.90;;;;;;7392899;19;20157;-73
2022/12/31 13:38:29;;;;;;;1.02;0.43;;;18.40;99.90;;;;;;7391131;19;20152;-74
2022/12/31 13:41:18;;;;;;;0.73;0.50;;;18.40;99.90;;;;;;7391253;19;20694;-74